Ana Sayfa
METAR-TAF:

METAR-TAF

Havaalanları :

Manchester, New Hampshire, Amerika Birleşik Devletleri

Enlem: 42-55-45N, Boylam: 071-26-09W, yükseklik: 71 m

Güncel hava durumu gözlemi

Rapor saat 08:53 UTC de 1 saat ve 1 dakika önce yapıldı.
Sakin rüzgar
Sıcaklık 2°C
Nem 69%
Basınç 1012 hPa
Görüş mesafesi: 16.1 km
11000 ft yükseklikte çok bulutlu

METAR: KMHT 250853Z 00000KT 10SM OVC110 02/M03 A2989 RMK AO2 SLP135 T00221028 55009

Saat: 04:54 (09:54 UTC)

Tahmin

Rapor saat 09:00 UTC de 54 dakika önce yapıldı.
Ayın 25'si saat 09 UTC'den ayın 26'si saat 06 UTC'ye kadar geçerli Tahmin
Rüzgar kuzeydan kt
Görüş mesafesi: 10 km
15000 ft yükseklikte parçalı bulutlu
22000 ft yükseklikte parçalı çok bulutlu
Ayın 25'si saat 2100 UTC'den
Rüzgar kuzeydan 3 kt
Görüş mesafesi: 10 km
1200 ft yükseklikte parçalı çok bulutlu
3000 ft yükseklikte çok bulutlu

TAF: KMHT 250900Z 2509/2606 00000KT P6SM SCT150 BKN220 FM252100 35003KT P6SM BKN012 OVC030

4.000'den fazla havaalanı için hava durumu gözlemleri ve tahminleri (METAR ve TAF raporları).

Kullanılabilir istasyonlar harita üzerinde sarı ve kırmızı noktalarla gösterilir.

İstasyonun adını görmek için fareyi noktanın üzerinde gezdirin.

Sonrasında hava gözlem ve tahminlerini görmek için tıklayın.

Haritayı değiştirmek için: yaklaştırmak için siyah artı işaretli yeşil düğmeye ve uzaklaştırmak için de eksi işaretli düğmeye hızla tıklayın; bitişik haritalar için yeşil okları kullanın.


METAR-TAF: